CheckWX is a tool to help pilots better visualize weather data.  It is not intended as a substitute for an official pre-flight weather briefing.

14:50:12 UTC

LQBK TAF
Banja Luka International Airport
Banja Luka, Bosnia and Herzegovina
TAF LQBK 231100Z 2312/2412 04004KT CAVOK TX20/2314Z TN01/2405Z

Mar-23@
12:00 UTC

Mar-23 @ 12:00 UTC

Mar-24@
12:00 UTC

Mar-24 @ 12:00 UTC

TAF LQBK 231100Z 2312/2412 04004KT CAVOK TX20/2314Z TN01/2405Z
Wind
  • 040° at 4 KTS
Cloud Levels
  • No significant clouds